UAL1032 KEYW-KEWR
Flight info
| Callsign | UAL1032 |
|---|---|
| Flight time | 2h 52m |
| Altitude | 36000 |
| Route | BUFTT1 MATLK Q87 ZERBO/N0460F350 Q87 DUCEN/N0455F370 Q87 ALWZZ OGRAE Q99 QUART PHLBO4 |
| Aircraft | A319/M-SDE3FGHIRWY/LB1 |
Departure
| Time | 2026-04-22 21:08 |
|---|---|
| Airport | Key West International Airport (KEYW) |
Arrival
| Time | 2026-04-23 00:00 |
|---|---|
| Airport | Newark Liberty International Airport (KEWR) |
| Time | Latitude | Longitude | Altitude | Speed | Heading |
|---|---|---|---|---|---|
| 2026-04-22 20:38 | 24.55437 | -81.75460 | 12 ft | 0 kts | 180° |
| 2026-04-22 20:57 | 24.55461 | -81.75462 | 15 ft | 4 kts | 166° |
| 2026-04-22 20:58 | 24.55484 | -81.75473 | 14 ft | 4 kts | 125° |
| 2026-04-22 20:58 | 24.55489 | -81.75487 | 12 ft | 0 kts | 90° |
| 2026-04-22 21:00 | 24.55489 | -81.75486 | 12 ft | 1 kts | 90° |
| 2026-04-22 21:01 | 24.55489 | -81.75482 | 12 ft | 1 kts | 90° |
| 2026-04-22 21:01 | 24.55489 | -81.75479 | 12 ft | 1 kts | 90° |
| 2026-04-22 21:01 | 24.55489 | -81.75471 | 12 ft | 0 kts | 90° |
| 2026-04-22 21:02 | 24.55489 | -81.75467 | 12 ft | 2 kts | 90° |
| 2026-04-22 21:02 | 24.55498 | -81.75451 | 14 ft | 3 kts | 40° |
| 2026-04-22 21:02 | 24.55525 | -81.75458 | 12 ft | 5 kts | 320° |
| 2026-04-22 21:02 | 24.55530 | -81.75507 | 12 ft | 8 kts | 270° |
| 2026-04-22 21:03 | 24.55530 | -81.75585 | 12 ft | 12 kts | 270° |
| 2026-04-22 21:03 | 24.55529 | -81.75679 | 12 ft | 8 kts | 270° |
| 2026-04-22 21:03 | 24.55529 | -81.75757 | 12 ft | 12 kts | 270° |
| 2026-04-22 21:03 | 24.55529 | -81.75852 | 12 ft | 9 kts | 269° |
| 2026-04-22 21:04 | 24.55527 | -81.75937 | 12 ft | 13 kts | 269° |
| 2026-04-22 21:04 | 24.55526 | -81.76047 | 12 ft | 16 kts | 269° |
| 2026-04-22 21:04 | 24.55525 | -81.76152 | 12 ft | 15 kts | 269° |
| 2026-04-22 21:04 | 24.55524 | -81.76275 | 12 ft | 16 kts | 269° |
| 2026-04-22 21:05 | 24.55522 | -81.76366 | 12 ft | 12 kts | 269° |
| 2026-04-22 21:05 | 24.55521 | -81.76466 | 11 ft | 12 kts | 270° |
| 2026-04-22 21:05 | 24.55521 | -81.76564 | 11 ft | 12 kts | 270° |
| 2026-04-22 21:05 | 24.55521 | -81.76610 | 12 ft | 0 kts | 271° |
| 2026-04-22 21:06 | 24.55523 | -81.76632 | 12 ft | 5 kts | 281° |
| 2026-04-22 21:06 | 24.55553 | -81.76669 | 11 ft | 9 kts | 339° |
| 2026-04-22 21:06 | 24.55606 | -81.76652 | 11 ft | 6 kts | 69° |
| 2026-04-22 21:07 | 24.55606 | -81.76646 | 11 ft | 0 kts | 85° |
| 2026-04-22 21:07 | 24.55609 | -81.76433 | 10 ft | 69 kts | 90° |
| 2026-04-22 21:07 | 24.55619 | -81.75619 | 27 ft | 139 kts | 90° |
| 2026-04-22 21:07 | 24.55647 | -81.74491 | 518 ft | 149 kts | 86° |
| 2026-04-22 21:08 | 24.56015 | -81.73459 | 1256 ft | 155 kts | 49° |
| 2026-04-22 21:08 | 24.57042 | -81.73010 | 1870 ft | 168 kts | 12° |
| 2026-04-22 21:08 | 24.58267 | -81.72915 | 2128 ft | 187 kts | 10° |
| 2026-04-22 21:08 | 24.59642 | -81.72815 | 2312 ft | 210 kts | 10° |
| 2026-04-22 21:09 | 24.61170 | -81.72701 | 2551 ft | 232 kts | 8° |
| 2026-04-22 21:09 | 24.62823 | -81.72578 | 3108 ft | 241 kts | 8° |
| 2026-04-22 21:09 | 24.64501 | -81.72455 | 3865 ft | 242 kts | 8° |
| 2026-04-22 21:09 | 24.66186 | -81.72327 | 4587 ft | 244 kts | 6° |
| 2026-04-22 21:10 | 24.67889 | -81.72195 | 5337 ft | 246 kts | 5° |
| 2026-04-22 21:10 | 24.69599 | -81.72053 | 6089 ft | 248 kts | 5° |
| 2026-04-22 21:10 | 24.71345 | -81.71618 | 6566 ft | 267 kts | 19° |
| 2026-04-22 21:10 | 24.73013 | -81.70644 | 7225 ft | 277 kts | 33° |
| 2026-04-22 21:11 | 24.73994 | -81.69726 | 7916 ft | 285 kts | 46° |
| 2026-04-22 21:11 | 24.75350 | -81.68132 | 8382 ft | 288 kts | 45° |
| 2026-04-22 21:11 | 24.76735 | -81.66508 | 9073 ft | 294 kts | 44° |
| 2026-04-22 21:11 | 24.78148 | -81.64858 | 9791 ft | 299 kts | 44° |
| 2026-04-22 21:12 | 24.79590 | -81.63177 | 10310 ft | 310 kts | 45° |
| 2026-04-22 21:12 | 24.81128 | -81.61385 | 10471 ft | 333 kts | 44° |
| 2026-04-22 21:12 | 24.82777 | -81.59468 | 10601 ft | 356 kts | 45° |
| 2026-04-22 21:12 | 24.84525 | -81.57475 | 11003 ft | 366 kts | 44° |
| 2026-04-22 21:13 | 24.86349 | -81.55481 | 11535 ft | 372 kts | 42° |
| 2026-04-22 21:13 | 24.88213 | -81.53492 | 12146 ft | 375 kts | 42° |
| 2026-04-22 21:13 | 24.90105 | -81.51490 | 12735 ft | 379 kts | 42° |
| 2026-04-22 21:13 | 24.92010 | -81.49468 | 13322 ft | 383 kts | 42° |
| 2026-04-22 21:14 | 24.93928 | -81.47417 | 13917 ft | 386 kts | 41° |
| 2026-04-22 21:14 | 24.95862 | -81.45343 | 14424 ft | 390 kts | 42° |
| 2026-04-22 21:14 | 24.97807 | -81.43252 | 14957 ft | 392 kts | 42° |
| 2026-04-22 21:14 | 24.99765 | -81.41139 | 15464 ft | 396 kts | 42° |
| 2026-04-22 21:15 | 25.01710 | -81.39032 | 15988 ft | 399 kts | 41° |
| 2026-04-22 21:15 | 25.03696 | -81.36880 | 16507 ft | 402 kts | 41° |
| 2026-04-22 21:15 | 25.05699 | -81.34712 | 17031 ft | 405 kts | 41° |
| 2026-04-22 21:15 | 25.07715 | -81.32530 | 17572 ft | 408 kts | 41° |
| 2026-04-22 21:16 | 25.09752 | -81.30324 | 18081 ft | 412 kts | 41° |
| 2026-04-22 21:16 | 25.11806 | -81.28100 | 18570 ft | 415 kts | 41° |
| 2026-04-22 21:16 | 25.13877 | -81.25859 | 19019 ft | 419 kts | 41° |
| 2026-04-22 21:16 | 25.15966 | -81.23594 | 19461 ft | 422 kts | 41° |
| 2026-04-22 21:17 | 25.18069 | -81.21310 | 19896 ft | 426 kts | 41° |
| 2026-04-22 21:17 | 25.20191 | -81.19006 | 20332 ft | 430 kts | 41° |
| 2026-04-22 21:17 | 25.22332 | -81.16683 | 20748 ft | 433 kts | 41° |
| 2026-04-22 21:17 | 25.24490 | -81.14342 | 21161 ft | 437 kts | 41° |
| 2026-04-22 21:18 | 25.26664 | -81.11981 | 21557 ft | 440 kts | 41° |
| 2026-04-22 21:18 | 25.28852 | -81.09601 | 21954 ft | 443 kts | 41° |
| 2026-04-22 21:18 | 25.31058 | -81.07201 | 22327 ft | 446 kts | 40° |
| 2026-04-22 21:18 | 25.33284 | -81.04797 | 22697 ft | 448 kts | 39° |
| 2026-04-22 21:19 | 25.35734 | -81.02687 | 23061 ft | 446 kts | 28° |
| 2026-04-22 21:19 | 25.38459 | -81.01080 | 23432 ft | 443 kts | 18° |
| 2026-04-22 21:19 | 25.41370 | -81.00018 | 23762 ft | 439 kts | 7° |
| 2026-04-22 21:19 | 25.44373 | -80.99518 | 24064 ft | 435 kts | 358° |
| 2026-04-22 21:20 | 25.47395 | -80.99382 | 24377 ft | 436 kts | 356° |
| 2026-04-22 21:20 | 25.50438 | -80.99257 | 24698 ft | 438 kts | 356° |
| 2026-04-22 21:20 | 25.53489 | -80.99130 | 25008 ft | 440 kts | 356° |
| 2026-04-22 21:20 | 25.56554 | -80.99000 | 25317 ft | 442 kts | 356° |
| 2026-04-22 21:21 | 25.59633 | -80.98867 | 25621 ft | 444 kts | 356° |
| 2026-04-22 21:21 | 25.62727 | -80.98733 | 25926 ft | 446 kts | 356° |
| 2026-04-22 21:21 | 25.65835 | -80.98598 | 26229 ft | 448 kts | 356° |
| 2026-04-22 21:21 | 25.68960 | -80.98462 | 26548 ft | 450 kts | 356° |
| 2026-04-22 21:22 | 25.72055 | -80.98329 | 26838 ft | 452 kts | 355° |
| 2026-04-22 21:22 | 25.75204 | -80.98193 | 27125 ft | 454 kts | 355° |
| 2026-04-22 21:22 | 25.78363 | -80.98057 | 27412 ft | 456 kts | 355° |
| 2026-04-22 21:22 | 25.81540 | -80.97919 | 27690 ft | 458 kts | 355° |
| 2026-04-22 21:23 | 25.84727 | -80.97781 | 27962 ft | 459 kts | 355° |
| 2026-04-22 21:23 | 25.87931 | -80.97641 | 28237 ft | 461 kts | 355° |
| 2026-04-22 21:23 | 25.91141 | -80.97501 | 28500 ft | 463 kts | 355° |
| 2026-04-22 21:23 | 25.94369 | -80.97363 | 28756 ft | 465 kts | 355° |
| 2026-04-22 21:24 | 25.97607 | -80.97225 | 29008 ft | 467 kts | 355° |
| 2026-04-22 21:24 | 26.00855 | -80.97088 | 29342 ft | 467 kts | 355° |
| 2026-04-22 21:24 | 26.04096 | -80.96947 | 29743 ft | 465 kts | 355° |
| 2026-04-22 21:24 | 26.07329 | -80.96803 | 30128 ft | 465 kts | 354° |
| 2026-04-22 21:25 | 26.10554 | -80.96658 | 30469 ft | 464 kts | 354° |
| 2026-04-22 21:25 | 26.13777 | -80.96514 | 30787 ft | 463 kts | 354° |
| 2026-04-22 21:25 | 26.16987 | -80.96373 | 31099 ft | 462 kts | 354° |
| 2026-04-22 21:25 | 26.20196 | -80.96234 | 31417 ft | 461 kts | 354° |
| 2026-04-22 21:26 | 26.23401 | -80.96095 | 31743 ft | 460 kts | 354° |
| 2026-04-22 21:26 | 26.26602 | -80.95957 | 32066 ft | 460 kts | 354° |
| 2026-04-22 21:26 | 26.29794 | -80.95821 | 32411 ft | 459 kts | 354° |
| 2026-04-22 21:26 | 26.32982 | -80.95686 | 32736 ft | 458 kts | 353° |
| 2026-04-22 21:27 | 26.36165 | -80.95548 | 33069 ft | 457 kts | 353° |
| 2026-04-22 21:27 | 26.39342 | -80.95413 | 33392 ft | 457 kts | 353° |
| 2026-04-22 21:27 | 26.42516 | -80.95264 | 33725 ft | 457 kts | 354° |
| 2026-04-22 21:27 | 26.45696 | -80.95016 | 34056 ft | 459 kts | 356° |
| 2026-04-22 21:28 | 26.48874 | -80.94674 | 34366 ft | 459 kts | 357° |
| 2026-04-22 21:28 | 26.52049 | -80.94284 | 34662 ft | 459 kts | 357° |
| 2026-04-22 21:28 | 26.55220 | -80.93881 | 34964 ft | 458 kts | 357° |
| 2026-04-22 21:28 | 26.58383 | -80.93492 | 35169 ft | 457 kts | 356° |
| 2026-04-22 21:29 | 26.64692 | -80.92776 | 35181 ft | 455 kts | 356° |
| 2026-04-22 21:29 | 26.70985 | -80.92112 | 35191 ft | 454 kts | 356° |
| 2026-04-22 21:30 | 26.77277 | -80.91452 | 35190 ft | 454 kts | 356° |
| 2026-04-22 21:30 | 26.83573 | -80.90767 | 35198 ft | 454 kts | 356° |
| 2026-04-22 21:31 | 26.89818 | -80.90075 | 35230 ft | 454 kts | 356° |
| 2026-04-22 21:31 | 26.96101 | -80.89380 | 35210 ft | 454 kts | 356° |
| 2026-04-22 21:32 | 27.02381 | -80.88688 | 35197 ft | 453 kts | 356° |
| 2026-04-22 21:32 | 27.08652 | -80.88007 | 35189 ft | 453 kts | 356° |
| 2026-04-22 21:33 | 27.14928 | -80.87325 | 35179 ft | 453 kts | 356° |
| 2026-04-22 21:33 | 27.21199 | -80.86638 | 35193 ft | 453 kts | 356° |
| 2026-04-22 21:34 | 27.27466 | -80.85947 | 35186 ft | 452 kts | 356° |
| 2026-04-22 21:34 | 27.33658 | -80.85822 | 35182 ft | 436 kts | 343° |
| 2026-04-22 21:35 | 27.39612 | -80.86938 | 35181 ft | 433 kts | 341° |
| 2026-04-22 21:35 | 27.45561 | -80.88069 | 35211 ft | 434 kts | 341° |
| 2026-04-22 21:36 | 27.51515 | -80.89196 | 35210 ft | 434 kts | 342° |
| 2026-04-22 21:36 | 27.57469 | -80.90321 | 35215 ft | 434 kts | 342° |
| 2026-04-22 21:37 | 27.63423 | -80.91453 | 35210 ft | 434 kts | 342° |
| 2026-04-22 21:37 | 27.69376 | -80.92582 | 35211 ft | 434 kts | 342° |
| 2026-04-22 21:38 | 27.75329 | -80.93717 | 35211 ft | 434 kts | 342° |
| 2026-04-22 21:38 | 27.81278 | -80.94847 | 35222 ft | 434 kts | 342° |
| 2026-04-22 21:39 | 27.87225 | -80.95991 | 35217 ft | 433 kts | 342° |
| 2026-04-22 21:39 | 27.93169 | -80.97148 | 35215 ft | 433 kts | 342° |
| 2026-04-22 21:40 | 27.99110 | -80.98304 | 35215 ft | 433 kts | 342° |
| 2026-04-22 21:40 | 28.05055 | -80.99459 | 35218 ft | 433 kts | 342° |
| 2026-04-22 21:41 | 28.10964 | -81.00605 | 35239 ft | 434 kts | 342° |
| 2026-04-22 21:41 | 28.16910 | -81.01757 | 35236 ft | 433 kts | 342° |
| 2026-04-22 21:42 | 28.22855 | -81.02920 | 35230 ft | 433 kts | 342° |
| 2026-04-22 21:42 | 28.28799 | -81.04081 | 35232 ft | 434 kts | 342° |
| 2026-04-22 21:43 | 28.34742 | -81.05246 | 35233 ft | 433 kts | 342° |
| 2026-04-22 21:43 | 28.40390 | -81.07250 | 35242 ft | 423 kts | 332° |
| 2026-04-22 21:44 | 28.45891 | -81.09631 | 35226 ft | 423 kts | 332° |
| 2026-04-22 21:44 | 28.51394 | -81.12013 | 35230 ft | 424 kts | 332° |
| 2026-04-22 21:45 | 28.56907 | -81.14392 | 35212 ft | 424 kts | 332° |
| 2026-04-22 21:45 | 28.62419 | -81.16772 | 35219 ft | 424 kts | 332° |
| 2026-04-22 21:46 | 28.67931 | -81.19160 | 35246 ft | 424 kts | 332° |
| 2026-04-22 21:46 | 28.73447 | -81.21554 | 35233 ft | 424 kts | 332° |
| 2026-04-22 21:47 | 28.78962 | -81.23946 | 35229 ft | 424 kts | 332° |
| 2026-04-22 21:47 | 28.84467 | -81.26347 | 35229 ft | 424 kts | 331° |
| 2026-04-22 21:48 | 28.89982 | -81.28736 | 35229 ft | 426 kts | 334° |
| 2026-04-22 21:48 | 28.92896 | -81.29522 | 35228 ft | 437 kts | 344° |
| 2026-04-22 21:48 | 28.95951 | -81.29815 | 35229 ft | 441 kts | 348° |
| 2026-04-22 21:49 | 29.02041 | -81.30277 | 35245 ft | 441 kts | 348° |
| 2026-04-22 21:49 | 29.08164 | -81.30764 | 35234 ft | 441 kts | 348° |
| 2026-04-22 21:50 | 29.14285 | -81.31255 | 35230 ft | 441 kts | 348° |
| 2026-04-22 21:50 | 29.20406 | -81.31740 | 35227 ft | 441 kts | 348° |
| 2026-04-22 21:51 | 29.26528 | -81.32228 | 35266 ft | 441 kts | 348° |
| 2026-04-22 21:52 | 29.35733 | -81.32839 | 35241 ft | 443 kts | 349° |
| 2026-04-22 21:52 | 29.41885 | -81.33168 | 35232 ft | 443 kts | 349° |
| 2026-04-22 21:53 | 29.48037 | -81.33508 | 35226 ft | 443 kts | 349° |
| 2026-04-22 21:53 | 29.54193 | -81.33872 | 35229 ft | 443 kts | 349° |
| 2026-04-22 21:54 | 29.60346 | -81.34242 | 35250 ft | 443 kts | 349° |
| 2026-04-22 21:54 | 29.66461 | -81.34606 | 35246 ft | 443 kts | 349° |
| 2026-04-22 21:55 | 29.72614 | -81.34967 | 35246 ft | 443 kts | 349° |
| 2026-04-22 21:55 | 29.78768 | -81.35332 | 35242 ft | 443 kts | 349° |
| 2026-04-22 21:56 | 29.84920 | -81.35704 | 35261 ft | 443 kts | 349° |
| 2026-04-22 21:56 | 29.91075 | -81.36071 | 35250 ft | 443 kts | 349° |
| 2026-04-22 21:57 | 29.97230 | -81.36427 | 35240 ft | 443 kts | 349° |
| 2026-04-22 21:57 | 30.03387 | -81.36784 | 35237 ft | 443 kts | 349° |
| 2026-04-22 21:58 | 30.09544 | -81.37152 | 35233 ft | 443 kts | 349° |
| 2026-04-22 21:58 | 30.15703 | -81.37530 | 35252 ft | 443 kts | 350° |
| 2026-04-22 21:59 | 30.21857 | -81.37904 | 35234 ft | 443 kts | 350° |
| 2026-04-22 21:59 | 30.28013 | -81.38267 | 35213 ft | 443 kts | 350° |
| 2026-04-22 22:00 | 30.33129 | -81.38570 | 35205 ft | 443 kts | 350° |
| 2026-04-22 22:00 | 30.39283 | -81.38941 | 35205 ft | 443 kts | 350° |
| 2026-04-22 22:01 | 30.45438 | -81.39311 | 35207 ft | 443 kts | 350° |
| 2026-04-22 22:01 | 30.51597 | -81.39649 | 35214 ft | 443 kts | 350° |
| 2026-04-22 22:02 | 30.57761 | -81.39965 | 35214 ft | 443 kts | 350° |
| 2026-04-22 22:02 | 30.63928 | -81.40291 | 35214 ft | 443 kts | 350° |
| 2026-04-22 22:03 | 30.70050 | -81.40618 | 35230 ft | 444 kts | 351° |
| 2026-04-22 22:03 | 30.76221 | -81.40950 | 35217 ft | 444 kts | 351° |
| 2026-04-22 22:04 | 30.82399 | -81.41279 | 35214 ft | 444 kts | 351° |
| 2026-04-22 22:04 | 30.88580 | -81.41603 | 35206 ft | 445 kts | 351° |
| 2026-04-22 22:05 | 30.94764 | -81.41927 | 35196 ft | 445 kts | 351° |
| 2026-04-22 22:05 | 31.00948 | -81.42265 | 35206 ft | 445 kts | 351° |
| 2026-04-22 22:06 | 31.07141 | -81.42601 | 35201 ft | 446 kts | 351° |
| 2026-04-22 22:06 | 31.13336 | -81.42920 | 35209 ft | 446 kts | 351° |
| 2026-04-22 22:07 | 31.19530 | -81.43241 | 35202 ft | 446 kts | 351° |
| 2026-04-22 22:07 | 31.25762 | -81.42772 | 35229 ft | 457 kts | 9° |
| 2026-04-22 22:08 | 31.31715 | -81.40055 | 35246 ft | 462 kts | 20° |
| 2026-04-22 22:08 | 31.37545 | -81.36887 | 35238 ft | 461 kts | 20° |
| 2026-04-22 22:09 | 31.43362 | -81.33727 | 35242 ft | 461 kts | 20° |
| 2026-04-22 22:09 | 31.49178 | -81.30577 | 35225 ft | 460 kts | 20° |
| 2026-04-22 22:10 | 31.54984 | -81.27425 | 35251 ft | 459 kts | 21° |
| 2026-04-22 22:10 | 31.60769 | -81.24277 | 35227 ft | 458 kts | 21° |
| 2026-04-22 22:11 | 31.66545 | -81.21125 | 35213 ft | 458 kts | 21° |
| 2026-04-22 22:11 | 31.72317 | -81.17964 | 35197 ft | 458 kts | 21° |
| 2026-04-22 22:12 | 31.78088 | -81.14809 | 35193 ft | 457 kts | 21° |
| 2026-04-22 22:12 | 31.83843 | -81.11656 | 35194 ft | 456 kts | 21° |
| 2026-04-22 22:13 | 31.89582 | -81.08505 | 35187 ft | 455 kts | 21° |
| 2026-04-22 22:13 | 31.95311 | -81.05356 | 35180 ft | 454 kts | 21° |
| 2026-04-22 22:14 | 32.01035 | -81.02212 | 35174 ft | 454 kts | 21° |
| 2026-04-22 22:14 | 32.06739 | -80.99034 | 35190 ft | 453 kts | 22° |
| 2026-04-22 22:15 | 32.12414 | -80.95839 | 35193 ft | 451 kts | 22° |
| 2026-04-22 22:15 | 32.18076 | -80.92660 | 35216 ft | 450 kts | 22° |
| 2026-04-22 22:16 | 32.23738 | -80.89487 | 35212 ft | 450 kts | 21° |
| 2026-04-22 22:16 | 32.29401 | -80.86309 | 35205 ft | 451 kts | 22° |
| 2026-04-22 22:17 | 32.35025 | -80.83141 | 35200 ft | 450 kts | 22° |
| 2026-04-22 22:17 | 32.40671 | -80.79963 | 35201 ft | 449 kts | 22° |
| 2026-04-22 22:18 | 32.46311 | -80.76777 | 35198 ft | 449 kts | 22° |
| 2026-04-22 22:18 | 32.51944 | -80.73594 | 35195 ft | 448 kts | 22° |
| 2026-04-22 22:19 | 32.57572 | -80.70411 | 35210 ft | 448 kts | 22° |
| 2026-04-22 22:19 | 32.63185 | -80.67230 | 35211 ft | 446 kts | 22° |
| 2026-04-22 22:20 | 32.68785 | -80.64053 | 35206 ft | 446 kts | 22° |
| 2026-04-22 22:20 | 32.74365 | -80.60857 | 35190 ft | 445 kts | 23° |
| 2026-04-22 22:21 | 32.79906 | -80.57558 | 35185 ft | 445 kts | 24° |
| 2026-04-22 22:21 | 32.85428 | -80.54237 | 35198 ft | 444 kts | 24° |
| 2026-04-22 22:22 | 32.90938 | -80.50941 | 35195 ft | 443 kts | 24° |
| 2026-04-22 22:22 | 32.96450 | -80.47662 | 35188 ft | 443 kts | 24° |
| 2026-04-22 22:23 | 33.01960 | -80.44380 | 35178 ft | 443 kts | 24° |
| 2026-04-22 22:23 | 33.07467 | -80.41091 | 35165 ft | 443 kts | 24° |
| 2026-04-22 22:24 | 33.12974 | -80.37804 | 35162 ft | 443 kts | 24° |
| 2026-04-22 22:24 | 33.18476 | -80.34503 | 35161 ft | 443 kts | 24° |
| 2026-04-22 22:25 | 33.23979 | -80.31191 | 35161 ft | 443 kts | 24° |
| 2026-04-22 22:25 | 33.29451 | -80.27902 | 35166 ft | 443 kts | 24° |
| 2026-04-22 22:26 | 33.34960 | -80.24590 | 35162 ft | 443 kts | 24° |
| 2026-04-22 22:26 | 33.40466 | -80.21282 | 35160 ft | 443 kts | 24° |
| 2026-04-22 22:27 | 33.45962 | -80.17958 | 35158 ft | 442 kts | 24° |
| 2026-04-22 22:27 | 33.51456 | -80.14630 | 35158 ft | 443 kts | 24° |
| 2026-04-22 22:28 | 33.56963 | -80.11300 | 35157 ft | 443 kts | 24° |
| 2026-04-22 22:28 | 33.62469 | -80.07964 | 35161 ft | 443 kts | 24° |
| 2026-04-22 22:29 | 33.67971 | -80.04621 | 35160 ft | 443 kts | 24° |
| 2026-04-22 22:29 | 33.73467 | -80.01277 | 35160 ft | 443 kts | 24° |
| 2026-04-22 22:30 | 33.78964 | -79.97939 | 35151 ft | 443 kts | 24° |
| 2026-04-22 22:30 | 33.84462 | -79.94592 | 35157 ft | 443 kts | 24° |
| 2026-04-22 22:31 | 33.89949 | -79.91244 | 35158 ft | 442 kts | 24° |
| 2026-04-22 22:31 | 33.95396 | -79.87911 | 35150 ft | 442 kts | 24° |
| 2026-04-22 22:32 | 34.00877 | -79.84557 | 35140 ft | 442 kts | 24° |
| 2026-04-22 22:32 | 34.06355 | -79.81199 | 35149 ft | 442 kts | 24° |
| 2026-04-22 22:33 | 34.11825 | -79.77838 | 35149 ft | 441 kts | 24° |
| 2026-04-22 22:33 | 34.17299 | -79.74479 | 35143 ft | 441 kts | 24° |
| 2026-04-22 22:34 | 34.22772 | -79.71116 | 35141 ft | 441 kts | 24° |
| 2026-04-22 22:34 | 34.28237 | -79.67739 | 35139 ft | 441 kts | 24° |
| 2026-04-22 22:35 | 34.33699 | -79.64356 | 35148 ft | 441 kts | 24° |
| 2026-04-22 22:35 | 34.39157 | -79.60979 | 35145 ft | 440 kts | 24° |
| 2026-04-22 22:36 | 34.44612 | -79.57607 | 35137 ft | 440 kts | 24° |
| 2026-04-22 22:36 | 34.50059 | -79.54239 | 35122 ft | 439 kts | 24° |
| 2026-04-22 22:37 | 34.55499 | -79.50860 | 35125 ft | 439 kts | 24° |
| 2026-04-22 22:37 | 34.60876 | -79.47331 | 35123 ft | 439 kts | 26° |
| 2026-04-22 22:38 | 34.66193 | -79.43670 | 35122 ft | 439 kts | 26° |
| 2026-04-22 22:38 | 34.71734 | -79.40723 | 35118 ft | 433 kts | 11° |
| 2026-04-22 22:39 | 34.77635 | -79.39424 | 35104 ft | 431 kts | 7° |
| 2026-04-22 22:39 | 34.83544 | -79.38164 | 35121 ft | 431 kts | 7° |
| 2026-04-22 22:40 | 34.89445 | -79.36897 | 35122 ft | 430 kts | 7° |
| 2026-04-22 22:40 | 34.95339 | -79.35643 | 35081 ft | 430 kts | 7° |
| 2026-04-22 22:41 | 35.01225 | -79.34390 | 35080 ft | 429 kts | 7° |
| 2026-04-22 22:41 | 35.07069 | -79.33140 | 35093 ft | 428 kts | 7° |
| 2026-04-22 22:42 | 35.12934 | -79.31876 | 35094 ft | 428 kts | 7° |
| 2026-04-22 22:42 | 35.18787 | -79.30609 | 35130 ft | 427 kts | 7° |
| 2026-04-22 22:43 | 35.24637 | -79.29356 | 35124 ft | 427 kts | 7° |
| 2026-04-22 22:43 | 35.30480 | -79.28108 | 35134 ft | 426 kts | 7° |
| 2026-04-22 22:44 | 35.36307 | -79.26858 | 35128 ft | 424 kts | 7° |
| 2026-04-22 22:44 | 35.42123 | -79.25599 | 35109 ft | 424 kts | 8° |
| 2026-04-22 22:45 | 35.47922 | -79.24343 | 35111 ft | 423 kts | 8° |
| 2026-04-22 22:45 | 35.53723 | -79.23078 | 35103 ft | 423 kts | 8° |
| 2026-04-22 22:46 | 35.59523 | -79.21816 | 35102 ft | 423 kts | 8° |
| 2026-04-22 22:46 | 35.65313 | -79.20565 | 35102 ft | 423 kts | 7° |
| 2026-04-22 22:47 | 35.71106 | -79.19308 | 35096 ft | 423 kts | 9° |
| 2026-04-22 22:47 | 35.76607 | -79.16707 | 35091 ft | 429 kts | 28° |
| 2026-04-22 22:48 | 35.81469 | -79.12533 | 35114 ft | 428 kts | 32° |
| 2026-04-22 22:48 | 35.86320 | -79.08325 | 35108 ft | 425 kts | 31° |
| 2026-04-22 22:49 | 35.91152 | -79.04130 | 35119 ft | 425 kts | 31° |
| 2026-04-22 22:49 | 35.95977 | -78.99923 | 35106 ft | 424 kts | 31° |
| 2026-04-22 22:50 | 36.00014 | -78.96388 | 35097 ft | 424 kts | 32° |
| 2026-04-22 22:50 | 36.04795 | -78.92202 | 35094 ft | 424 kts | 31° |
| 2026-04-22 22:51 | 36.09606 | -78.87993 | 35115 ft | 423 kts | 31° |
| 2026-04-22 22:51 | 36.14410 | -78.83778 | 35117 ft | 423 kts | 31° |
| 2026-04-22 22:52 | 36.19210 | -78.79557 | 35114 ft | 423 kts | 32° |
| 2026-04-22 22:52 | 36.23998 | -78.75329 | 35115 ft | 423 kts | 32° |
| 2026-04-22 22:53 | 36.28782 | -78.71098 | 35111 ft | 422 kts | 31° |
| 2026-04-22 22:53 | 36.33568 | -78.66875 | 35133 ft | 422 kts | 31° |
| 2026-04-22 22:54 | 36.38353 | -78.62641 | 35122 ft | 423 kts | 31° |
| 2026-04-22 22:54 | 36.43140 | -78.58400 | 35120 ft | 423 kts | 31° |
| 2026-04-22 22:55 | 36.47988 | -78.54280 | 35129 ft | 421 kts | 28° |
| 2026-04-22 22:55 | 36.55461 | -78.48555 | 35113 ft | 420 kts | 27° |
| 2026-04-22 22:56 | 36.60435 | -78.44733 | 34841 ft | 420 kts | 28° |
| 2026-04-22 22:56 | 36.62896 | -78.42803 | 34576 ft | 414 kts | 28° |
| 2026-04-22 22:56 | 36.65312 | -78.40891 | 34287 ft | 407 kts | 28° |
| 2026-04-22 22:57 | 36.67665 | -78.39026 | 34219 ft | 396 kts | 28° |
| 2026-04-22 22:57 | 36.69957 | -78.37213 | 34134 ft | 384 kts | 27° |
| 2026-04-22 22:57 | 36.72178 | -78.35459 | 34048 ft | 372 kts | 27° |
| 2026-04-22 22:57 | 36.74335 | -78.33758 | 33958 ft | 361 kts | 27° |
| 2026-04-22 22:58 | 36.76426 | -78.32109 | 33879 ft | 350 kts | 27° |
| 2026-04-22 22:58 | 36.78481 | -78.30491 | 33486 ft | 351 kts | 27° |
| 2026-04-22 22:58 | 36.80558 | -78.28856 | 32879 ft | 355 kts | 27° |
| 2026-04-22 22:58 | 36.82659 | -78.27201 | 32284 ft | 359 kts | 27° |
| 2026-04-22 22:59 | 36.84778 | -78.25531 | 31699 ft | 362 kts | 27° |
| 2026-04-22 22:59 | 36.86912 | -78.23849 | 31229 ft | 362 kts | 27° |
| 2026-04-22 22:59 | 36.89020 | -78.22180 | 30912 ft | 358 kts | 27° |
| 2026-04-22 22:59 | 36.91132 | -78.20504 | 30497 ft | 358 kts | 27° |
| 2026-04-22 23:00 | 36.93214 | -78.18845 | 30216 ft | 352 kts | 27° |
| 2026-04-22 23:00 | 36.95267 | -78.17210 | 29941 ft | 347 kts | 27° |
| 2026-04-22 23:00 | 36.97290 | -78.15602 | 29661 ft | 342 kts | 27° |
| 2026-04-22 23:00 | 36.99254 | -78.14040 | 29382 ft | 337 kts | 27° |
| 2026-04-22 23:01 | 37.01216 | -78.12477 | 29106 ft | 332 kts | 26° |
| 2026-04-22 23:01 | 37.03148 | -78.10939 | 28829 ft | 326 kts | 26° |
| 2026-04-22 23:01 | 37.05047 | -78.09425 | 28557 ft | 321 kts | 26° |
| 2026-04-22 23:01 | 37.06918 | -78.07934 | 28288 ft | 316 kts | 26° |
| 2026-04-22 23:02 | 37.08762 | -78.06466 | 28022 ft | 312 kts | 26° |
| 2026-04-22 23:02 | 37.10591 | -78.05013 | 27758 ft | 310 kts | 26° |
| 2026-04-22 23:02 | 37.12411 | -78.03567 | 27511 ft | 310 kts | 26° |
| 2026-04-22 23:02 | 37.14221 | -78.02122 | 27249 ft | 308 kts | 26° |
| 2026-04-22 23:03 | 37.16026 | -78.00680 | 27073 ft | 307 kts | 26° |
| 2026-04-22 23:03 | 37.17823 | -77.99244 | 27060 ft | 307 kts | 26° |
| 2026-04-22 23:03 | 37.19625 | -77.97809 | 27062 ft | 307 kts | 26° |
| 2026-04-22 23:03 | 37.21427 | -77.96371 | 27062 ft | 307 kts | 26° |
| 2026-04-22 23:04 | 37.23228 | -77.94931 | 27069 ft | 307 kts | 26° |
| 2026-04-22 23:04 | 37.25032 | -77.93487 | 27063 ft | 307 kts | 26° |
| 2026-04-22 23:04 | 37.26833 | -77.92046 | 27059 ft | 307 kts | 26° |
| 2026-04-22 23:04 | 37.28638 | -77.90599 | 27059 ft | 307 kts | 26° |
| 2026-04-22 23:05 | 37.30437 | -77.89155 | 27058 ft | 308 kts | 26° |
| 2026-04-22 23:05 | 37.32241 | -77.87702 | 27057 ft | 308 kts | 26° |
| 2026-04-22 23:05 | 37.34042 | -77.86251 | 27061 ft | 308 kts | 26° |
| 2026-04-22 23:05 | 37.35844 | -77.84803 | 27061 ft | 307 kts | 26° |
| 2026-04-22 23:06 | 37.37644 | -77.83355 | 27053 ft | 307 kts | 26° |
| 2026-04-22 23:06 | 37.39443 | -77.81907 | 27059 ft | 307 kts | 26° |
| 2026-04-22 23:06 | 37.41243 | -77.80457 | 27058 ft | 307 kts | 26° |
| 2026-04-22 23:06 | 37.43043 | -77.79008 | 27060 ft | 307 kts | 26° |
| 2026-04-22 23:07 | 37.44843 | -77.77560 | 27057 ft | 307 kts | 26° |
| 2026-04-22 23:07 | 37.46641 | -77.76111 | 27058 ft | 307 kts | 26° |
| 2026-04-22 23:07 | 37.48441 | -77.74660 | 27056 ft | 307 kts | 26° |
| 2026-04-22 23:07 | 37.50241 | -77.73208 | 27056 ft | 307 kts | 26° |
| 2026-04-22 23:08 | 37.52036 | -77.71754 | 27057 ft | 307 kts | 26° |
| 2026-04-22 23:08 | 37.53836 | -77.70296 | 27059 ft | 307 kts | 26° |
| 2026-04-22 23:08 | 37.55634 | -77.68843 | 27060 ft | 307 kts | 26° |
| 2026-04-22 23:08 | 37.57431 | -77.67393 | 27058 ft | 306 kts | 26° |
| 2026-04-22 23:09 | 37.59227 | -77.65947 | 27058 ft | 306 kts | 26° |
| 2026-04-22 23:09 | 37.61022 | -77.64501 | 27057 ft | 306 kts | 26° |
| 2026-04-22 23:09 | 37.62816 | -77.63052 | 27058 ft | 306 kts | 26° |
| 2026-04-22 23:09 | 37.64608 | -77.61604 | 27054 ft | 306 kts | 26° |
| 2026-04-22 23:10 | 37.66379 | -77.60172 | 27054 ft | 306 kts | 26° |
| 2026-04-22 23:10 | 37.68172 | -77.58723 | 27068 ft | 306 kts | 26° |
| 2026-04-22 23:10 | 37.69960 | -77.57277 | 27054 ft | 305 kts | 26° |
| 2026-04-22 23:10 | 37.71749 | -77.55826 | 27054 ft | 305 kts | 26° |
| 2026-04-22 23:11 | 37.73535 | -77.54373 | 27053 ft | 305 kts | 26° |
| 2026-04-22 23:11 | 37.75350 | -77.52905 | 27058 ft | 317 kts | 26° |
| 2026-04-22 23:11 | 37.77251 | -77.51372 | 27056 ft | 332 kts | 26° |
| 2026-04-22 23:11 | 37.79241 | -77.49767 | 27055 ft | 347 kts | 26° |
| 2026-04-22 23:12 | 37.81319 | -77.48089 | 27055 ft | 362 kts | 27° |
| 2026-04-22 23:12 | 37.83488 | -77.46332 | 27053 ft | 377 kts | 27° |
| 2026-04-22 23:12 | 37.85737 | -77.44501 | 27052 ft | 391 kts | 27° |
| 2026-04-22 23:12 | 37.88064 | -77.42597 | 27051 ft | 404 kts | 28° |
| 2026-04-22 23:13 | 37.90458 | -77.40635 | 27049 ft | 416 kts | 28° |
| 2026-04-22 23:13 | 37.92913 | -77.38621 | 27048 ft | 423 kts | 28° |
| 2026-04-22 23:13 | 37.95384 | -77.36589 | 27048 ft | 425 kts | 28° |
| 2026-04-22 23:13 | 37.97864 | -77.34554 | 27036 ft | 425 kts | 28° |
| 2026-04-22 23:14 | 38.00347 | -77.32522 | 27024 ft | 424 kts | 28° |
| 2026-04-22 23:14 | 38.02830 | -77.30493 | 27023 ft | 425 kts | 28° |
| 2026-04-22 23:14 | 38.05311 | -77.28464 | 27022 ft | 424 kts | 28° |
| 2026-04-22 23:14 | 38.07792 | -77.26435 | 27016 ft | 424 kts | 28° |
| 2026-04-22 23:15 | 38.10278 | -77.24405 | 27015 ft | 424 kts | 28° |
| 2026-04-22 23:15 | 38.12760 | -77.22374 | 27026 ft | 425 kts | 27° |
| 2026-04-22 23:15 | 38.15241 | -77.20336 | 27010 ft | 425 kts | 28° |
| 2026-04-22 23:15 | 38.17721 | -77.18297 | 27012 ft | 425 kts | 28° |
| 2026-04-22 23:16 | 38.20205 | -77.16252 | 27014 ft | 425 kts | 28° |
| 2026-04-22 23:16 | 38.22689 | -77.14208 | 27013 ft | 425 kts | 28° |
| 2026-04-22 23:16 | 38.25173 | -77.12161 | 27017 ft | 429 kts | 28° |
| 2026-04-22 23:16 | 38.27700 | -77.10084 | 27014 ft | 437 kts | 28° |
| 2026-04-22 23:17 | 38.30262 | -77.07937 | 27019 ft | 444 kts | 30° |
| 2026-04-22 23:17 | 38.32789 | -77.05645 | 27009 ft | 448 kts | 31° |
| 2026-04-22 23:17 | 38.35277 | -77.03247 | 27017 ft | 449 kts | 33° |
| 2026-04-22 23:17 | 38.37741 | -77.00795 | 27013 ft | 449 kts | 33° |
| 2026-04-22 23:18 | 38.40200 | -76.98333 | 27022 ft | 449 kts | 33° |
| 2026-04-22 23:18 | 38.42660 | -76.95884 | 27006 ft | 449 kts | 33° |
| 2026-04-22 23:18 | 38.45133 | -76.93458 | 27008 ft | 448 kts | 32° |
| 2026-04-22 23:18 | 38.47616 | -76.91054 | 27010 ft | 448 kts | 32° |
| 2026-04-22 23:19 | 38.50105 | -76.88663 | 27012 ft | 448 kts | 32° |
| 2026-04-22 23:19 | 38.52599 | -76.86270 | 27024 ft | 448 kts | 32° |
| 2026-04-22 23:19 | 38.55091 | -76.83878 | 27013 ft | 448 kts | 32° |
| 2026-04-22 23:19 | 38.57585 | -76.81478 | 27011 ft | 449 kts | 32° |
| 2026-04-22 23:20 | 38.60072 | -76.79073 | 27020 ft | 449 kts | 32° |
| 2026-04-22 23:20 | 38.62561 | -76.76652 | 27010 ft | 448 kts | 32° |
| 2026-04-22 23:20 | 38.65041 | -76.74236 | 27011 ft | 448 kts | 32° |
| 2026-04-22 23:20 | 38.67527 | -76.71815 | 26997 ft | 448 kts | 32° |
| 2026-04-22 23:21 | 38.69976 | -76.69428 | 26997 ft | 448 kts | 32° |
| 2026-04-22 23:21 | 38.72458 | -76.67007 | 26997 ft | 448 kts | 32° |
| 2026-04-22 23:21 | 38.74938 | -76.64591 | 26999 ft | 448 kts | 32° |
| 2026-04-22 23:21 | 38.77419 | -76.62172 | 26999 ft | 448 kts | 32° |
| 2026-04-22 23:22 | 38.79897 | -76.59760 | 27001 ft | 448 kts | 32° |
| 2026-04-22 23:22 | 38.82378 | -76.57343 | 27006 ft | 447 kts | 32° |
| 2026-04-22 23:22 | 38.84851 | -76.54931 | 27006 ft | 446 kts | 32° |
| 2026-04-22 23:22 | 38.87318 | -76.52514 | 27010 ft | 446 kts | 32° |
| 2026-04-22 23:23 | 38.89783 | -76.50089 | 27033 ft | 446 kts | 32° |
| 2026-04-22 23:23 | 38.92253 | -76.47660 | 27020 ft | 447 kts | 32° |
| 2026-04-22 23:23 | 38.94719 | -76.45235 | 27022 ft | 447 kts | 32° |
| 2026-04-22 23:23 | 38.97189 | -76.42807 | 27011 ft | 447 kts | 32° |
| 2026-04-22 23:24 | 38.99660 | -76.40374 | 27012 ft | 447 kts | 32° |
| 2026-04-22 23:24 | 39.02126 | -76.37948 | 27017 ft | 446 kts | 32° |
| 2026-04-22 23:24 | 39.04547 | -76.35452 | 27012 ft | 447 kts | 34° |
| 2026-04-22 23:24 | 39.06901 | -76.32822 | 27025 ft | 448 kts | 36° |
| 2026-04-22 23:25 | 39.09202 | -76.30104 | 27024 ft | 449 kts | 37° |
| 2026-04-22 23:25 | 39.11477 | -76.27353 | 27025 ft | 449 kts | 38° |
| 2026-04-22 23:25 | 39.13752 | -76.24599 | 27027 ft | 449 kts | 37° |
| 2026-04-22 23:25 | 39.16040 | -76.21861 | 27027 ft | 448 kts | 37° |
| 2026-04-22 23:26 | 39.18337 | -76.19147 | 27025 ft | 448 kts | 37° |
| 2026-04-22 23:26 | 39.20645 | -76.16443 | 27038 ft | 448 kts | 36° |
| 2026-04-22 23:26 | 39.22956 | -76.13747 | 27042 ft | 448 kts | 36° |
| 2026-04-22 23:26 | 39.25268 | -76.11049 | 27025 ft | 449 kts | 36° |
| 2026-04-22 23:27 | 39.27584 | -76.08341 | 26934 ft | 450 kts | 37° |
| 2026-04-22 23:27 | 39.29887 | -76.05636 | 26428 ft | 447 kts | 37° |
| 2026-04-22 23:27 | 39.32183 | -76.02933 | 26065 ft | 445 kts | 37° |
| 2026-04-22 23:27 | 39.34467 | -76.00247 | 25686 ft | 443 kts | 37° |
| 2026-04-22 23:28 | 39.36742 | -75.97570 | 25303 ft | 441 kts | 37° |
| 2026-04-22 23:28 | 39.39004 | -75.94903 | 24927 ft | 440 kts | 37° |
| 2026-04-22 23:28 | 39.41256 | -75.92246 | 24552 ft | 437 kts | 37° |
| 2026-04-22 23:28 | 39.43496 | -75.89603 | 24169 ft | 435 kts | 37° |
| 2026-04-22 23:29 | 39.45729 | -75.86963 | 23802 ft | 434 kts | 37° |
| 2026-04-22 23:29 | 39.47951 | -75.84330 | 23387 ft | 432 kts | 37° |
| 2026-04-22 23:29 | 39.50158 | -75.81713 | 23003 ft | 430 kts | 37° |
| 2026-04-22 23:29 | 39.52360 | -75.79099 | 22636 ft | 428 kts | 37° |
| 2026-04-22 23:30 | 39.54555 | -75.76499 | 22261 ft | 427 kts | 37° |
| 2026-04-22 23:30 | 39.56742 | -75.73905 | 21892 ft | 425 kts | 37° |
| 2026-04-22 23:30 | 39.58922 | -75.71314 | 21536 ft | 423 kts | 37° |
| 2026-04-22 23:30 | 39.61087 | -75.68740 | 21161 ft | 421 kts | 37° |
| 2026-04-22 23:31 | 39.63242 | -75.66174 | 20796 ft | 419 kts | 37° |
| 2026-04-22 23:31 | 39.65385 | -75.63618 | 20430 ft | 418 kts | 37° |
| 2026-04-22 23:31 | 39.67519 | -75.61070 | 20072 ft | 416 kts | 37° |
| 2026-04-22 23:31 | 39.69613 | -75.58565 | 19670 ft | 414 kts | 37° |
| 2026-04-22 23:32 | 39.71719 | -75.56034 | 19246 ft | 411 kts | 38° |
| 2026-04-22 23:32 | 39.73810 | -75.53512 | 18830 ft | 409 kts | 38° |
| 2026-04-22 23:32 | 39.75894 | -75.51000 | 18414 ft | 407 kts | 38° |
| 2026-04-22 23:32 | 39.77969 | -75.48500 | 17896 ft | 405 kts | 38° |
| 2026-04-22 23:33 | 39.80024 | -75.46015 | 17502 ft | 402 kts | 38° |
| 2026-04-22 23:33 | 39.82070 | -75.43540 | 17100 ft | 400 kts | 38° |
| 2026-04-22 23:33 | 39.84109 | -75.41073 | 16700 ft | 399 kts | 38° |
| 2026-04-22 23:33 | 39.85485 | -75.39409 | 16420 ft | 397 kts | 38° |
| 2026-04-22 23:34 | 39.87499 | -75.36968 | 16016 ft | 395 kts | 38° |
| 2026-04-22 23:34 | 39.89509 | -75.34528 | 15615 ft | 393 kts | 38° |
| 2026-04-22 23:34 | 39.91475 | -75.32141 | 15220 ft | 390 kts | 38° |
| 2026-04-22 23:34 | 39.93461 | -75.29728 | 14829 ft | 388 kts | 38° |
| 2026-04-22 23:35 | 39.95439 | -75.27324 | 14427 ft | 386 kts | 38° |
| 2026-04-22 23:35 | 39.97400 | -75.24941 | 14048 ft | 384 kts | 38° |
| 2026-04-22 23:35 | 39.99361 | -75.22559 | 13630 ft | 382 kts | 38° |
| 2026-04-22 23:35 | 40.01299 | -75.20202 | 13234 ft | 380 kts | 38° |
| 2026-04-22 23:36 | 40.03209 | -75.17876 | 12854 ft | 378 kts | 38° |
| 2026-04-22 23:36 | 40.05124 | -75.15538 | 12474 ft | 377 kts | 38° |
| 2026-04-22 23:36 | 40.07032 | -75.13207 | 12095 ft | 375 kts | 38° |
| 2026-04-22 23:36 | 40.08934 | -75.10883 | 11722 ft | 373 kts | 38° |
| 2026-04-22 23:37 | 40.10822 | -75.08571 | 11346 ft | 372 kts | 38° |
| 2026-04-22 23:37 | 40.12705 | -75.06265 | 10974 ft | 370 kts | 39° |
| 2026-04-22 23:37 | 40.14578 | -75.03973 | 10628 ft | 368 kts | 38° |
| 2026-04-22 23:37 | 40.16415 | -75.01723 | 10292 ft | 354 kts | 38° |
| 2026-04-22 23:38 | 40.18157 | -74.99581 | 9977 ft | 332 kts | 38° |
| 2026-04-22 23:38 | 40.19791 | -74.97566 | 9655 ft | 314 kts | 38° |
| 2026-04-22 23:38 | 40.21337 | -74.95659 | 9373 ft | 297 kts | 38° |
| 2026-04-22 23:38 | 40.22811 | -74.93845 | 9114 ft | 285 kts | 37° |
| 2026-04-22 23:39 | 40.24249 | -74.92082 | 8844 ft | 281 kts | 37° |
| 2026-04-22 23:39 | 40.25657 | -74.90344 | 8585 ft | 277 kts | 38° |
| 2026-04-22 23:39 | 40.27000 | -74.88551 | 8331 ft | 274 kts | 41° |
| 2026-04-22 23:39 | 40.28294 | -74.86732 | 8088 ft | 271 kts | 41° |
| 2026-04-22 23:40 | 40.29546 | -74.84942 | 7980 ft | 262 kts | 41° |
| 2026-04-22 23:40 | 40.30743 | -74.83225 | 7986 ft | 248 kts | 41° |
| 2026-04-22 23:40 | 40.31881 | -74.81598 | 7989 ft | 239 kts | 40° |
| 2026-04-22 23:40 | 40.32989 | -74.80021 | 7990 ft | 237 kts | 40° |
| 2026-04-22 23:41 | 40.34112 | -74.78438 | 7998 ft | 237 kts | 40° |
| 2026-04-22 23:41 | 40.35241 | -74.76856 | 7993 ft | 238 kts | 40° |
| 2026-04-22 23:41 | 40.36384 | -74.75257 | 7999 ft | 251 kts | 40° |
| 2026-04-22 23:41 | 40.37631 | -74.73522 | 7993 ft | 262 kts | 40° |
| 2026-04-22 23:42 | 40.38885 | -74.71763 | 7990 ft | 264 kts | 41° |
| 2026-04-22 23:42 | 40.40138 | -74.69997 | 7988 ft | 265 kts | 41° |
| 2026-04-22 23:42 | 40.41430 | -74.68284 | 7987 ft | 262 kts | 33° |
| 2026-04-22 23:42 | 40.42939 | -74.67026 | 7987 ft | 254 kts | 18° |
| 2026-04-22 23:43 | 40.44593 | -74.66322 | 7982 ft | 248 kts | 5° |
| 2026-04-22 23:43 | 40.46264 | -74.65893 | 7982 ft | 248 kts | 5° |
| 2026-04-22 23:43 | 40.47953 | -74.65447 | 7982 ft | 249 kts | 5° |
| 2026-04-22 23:43 | 40.49703 | -74.64986 | 7982 ft | 261 kts | 6° |
| 2026-04-22 23:44 | 40.51498 | -74.64505 | 7982 ft | 264 kts | 6° |
| 2026-04-22 23:44 | 40.53297 | -74.64022 | 7988 ft | 264 kts | 6° |
| 2026-04-22 23:44 | 40.55101 | -74.63538 | 7983 ft | 264 kts | 6° |
| 2026-04-22 23:44 | 40.56904 | -74.63058 | 7982 ft | 264 kts | 5° |
| 2026-04-22 23:45 | 40.58706 | -74.62577 | 7982 ft | 264 kts | 6° |
| 2026-04-22 23:45 | 40.60506 | -74.62093 | 7982 ft | 264 kts | 6° |
| 2026-04-22 23:45 | 40.62311 | -74.61607 | 7982 ft | 264 kts | 6° |
| 2026-04-22 23:45 | 40.64111 | -74.61122 | 7981 ft | 264 kts | 6° |
| 2026-04-22 23:46 | 40.65914 | -74.60638 | 7981 ft | 264 kts | 6° |
| 2026-04-22 23:46 | 40.67713 | -74.60155 | 7981 ft | 264 kts | 6° |
| 2026-04-22 23:46 | 40.69515 | -74.59669 | 7982 ft | 265 kts | 6° |
| 2026-04-22 23:46 | 40.71320 | -74.59180 | 7980 ft | 264 kts | 6° |
| 2026-04-22 23:47 | 40.73125 | -74.58690 | 7982 ft | 264 kts | 6° |
| 2026-04-22 23:47 | 40.74927 | -74.58204 | 7989 ft | 265 kts | 6° |
| 2026-04-22 23:47 | 40.76735 | -74.57730 | 7989 ft | 265 kts | 5° |
| 2026-04-22 23:47 | 40.78548 | -74.57258 | 8005 ft | 265 kts | 6° |
| 2026-04-22 23:48 | 40.80356 | -74.56768 | 8006 ft | 265 kts | 6° |
| 2026-04-22 23:48 | 40.82139 | -74.56264 | 8015 ft | 266 kts | 6° |
| 2026-04-22 23:48 | 40.83919 | -74.55569 | 8000 ft | 273 kts | 22° |
| 2026-04-22 23:48 | 40.85396 | -74.53927 | 8014 ft | 284 kts | 44° |
| 2026-04-22 23:49 | 40.86625 | -74.51867 | 8015 ft | 286 kts | 47° |
| 2026-04-22 23:49 | 40.87825 | -74.49770 | 8006 ft | 286 kts | 47° |
| 2026-04-22 23:49 | 40.89021 | -74.47666 | 8006 ft | 286 kts | 47° |
| 2026-04-22 23:49 | 40.90214 | -74.45560 | 8007 ft | 286 kts | 47° |
| 2026-04-22 23:50 | 40.91424 | -74.43424 | 8004 ft | 286 kts | 47° |
| 2026-04-22 23:50 | 40.92602 | -74.41346 | 8020 ft | 286 kts | 48° |
| 2026-04-22 23:50 | 40.93797 | -74.39244 | 8018 ft | 286 kts | 47° |
| 2026-04-22 23:50 | 40.94995 | -74.37145 | 8014 ft | 286 kts | 47° |
| 2026-04-22 23:51 | 40.96194 | -74.35047 | 8023 ft | 286 kts | 48° |
| 2026-04-22 23:51 | 40.97396 | -74.32962 | 8019 ft | 284 kts | 47° |
| 2026-04-22 23:51 | 40.98601 | -74.30887 | 8018 ft | 285 kts | 47° |
| 2026-04-22 23:51 | 40.99803 | -74.28812 | 8017 ft | 284 kts | 47° |
| 2026-04-22 23:52 | 41.01006 | -74.26734 | 8019 ft | 284 kts | 47° |
| 2026-04-22 23:52 | 41.02209 | -74.24656 | 8013 ft | 284 kts | 47° |
| 2026-04-22 23:52 | 41.03337 | -74.22514 | 7783 ft | 287 kts | 60° |
| 2026-04-22 23:52 | 41.03819 | -74.19917 | 7304 ft | 299 kts | 87° |
| 2026-04-22 23:53 | 41.03392 | -74.17212 | 6808 ft | 306 kts | 115° |
| 2026-04-22 23:53 | 41.02264 | -74.14840 | 6313 ft | 302 kts | 127° |
| 2026-04-22 23:53 | 41.00922 | -74.12756 | 5841 ft | 293 kts | 142° |
| 2026-04-22 23:53 | 40.99217 | -74.11437 | 5539 ft | 277 kts | 163° |
| 2026-04-22 23:54 | 40.97382 | -74.10992 | 5221 ft | 262 kts | 183° |
| 2026-04-22 23:54 | 40.95594 | -74.11041 | 4906 ft | 253 kts | 185° |
| 2026-04-22 23:54 | 40.93869 | -74.11108 | 4588 ft | 244 kts | 185° |
| 2026-04-22 23:54 | 40.92205 | -74.11176 | 4287 ft | 234 kts | 185° |
| 2026-04-22 23:55 | 40.90597 | -74.11241 | 3999 ft | 230 kts | 185° |
| 2026-04-22 23:55 | 40.89001 | -74.11308 | 3714 ft | 228 kts | 185° |
| 2026-04-22 23:55 | 40.87417 | -74.11374 | 3422 ft | 227 kts | 185° |
| 2026-04-22 23:55 | 40.85846 | -74.11436 | 3141 ft | 224 kts | 185° |
| 2026-04-22 23:56 | 40.84308 | -74.11493 | 2861 ft | 219 kts | 184° |
| 2026-04-22 23:56 | 40.82835 | -74.11548 | 2713 ft | 207 kts | 184° |
| 2026-04-22 23:56 | 40.81415 | -74.11602 | 2376 ft | 202 kts | 184° |
| 2026-04-22 23:56 | 40.80051 | -74.11655 | 2092 ft | 189 kts | 184° |
| 2026-04-22 23:57 | 40.78782 | -74.11705 | 1859 ft | 176 kts | 183° |
| 2026-04-22 23:57 | 40.77598 | -74.11753 | 1646 ft | 164 kts | 182° |
| 2026-04-22 23:57 | 40.76506 | -74.11898 | 1484 ft | 150 kts | 197° |
| 2026-04-22 23:57 | 40.75586 | -74.12443 | 1317 ft | 145 kts | 205° |
| 2026-04-22 23:58 | 40.74682 | -74.13017 | 1122 ft | 143 kts | 205° |
| 2026-04-22 23:58 | 40.73783 | -74.13584 | 905 ft | 143 kts | 204° |
| 2026-04-22 23:58 | 40.72884 | -74.14163 | 702 ft | 143 kts | 204° |
| 2026-04-22 23:58 | 40.71984 | -74.14741 | 524 ft | 143 kts | 203° |
| 2026-04-22 23:59 | 40.71091 | -74.15305 | 329 ft | 142 kts | 204° |
| 2026-04-22 23:59 | 40.70207 | -74.15872 | 139 ft | 140 kts | 204° |
| 2026-04-22 23:59 | 40.69338 | -74.16426 | 27 ft | 132 kts | 205° |
| 2026-04-22 23:59 | 40.68628 | -74.16872 | 22 ft | 90 kts | 206° |
| 2026-04-23 00:00 | 40.68222 | -74.17266 | 22 ft | 14 kts | 240° |
| 2026-04-23 00:00 | 40.68171 | -74.17367 | 24 ft | 13 kts | 236° |
| 2026-04-23 00:00 | 40.68147 | -74.17425 | 21 ft | 5 kts | 256° |
| 2026-04-23 00:01 | 40.68158 | -74.17487 | 21 ft | 9 kts | 293° |
| 2026-04-23 00:01 | 40.68186 | -74.17568 | 21 ft | 11 kts | 295° |
| 2026-04-23 00:01 | 40.68217 | -74.17649 | 22 ft | 9 kts | 302° |
| 2026-04-23 00:01 | 40.68276 | -74.17699 | 22 ft | 11 kts | 334° |
| 2026-04-23 00:02 | 40.68360 | -74.17705 | 22 ft | 14 kts | 23° |
| 2026-04-23 00:02 | 40.68453 | -74.17643 | 22 ft | 16 kts | 25° |
| 2026-04-23 00:02 | 40.68564 | -74.17573 | 22 ft | 19 kts | 26° |
| 2026-04-23 00:02 | 40.68670 | -74.17502 | 23 ft | 13 kts | 28° |
| 2026-04-23 00:03 | 40.68761 | -74.17442 | 22 ft | 16 kts | 21° |
| 2026-04-23 00:03 | 40.68868 | -74.17380 | 22 ft | 17 kts | 25° |
| 2026-04-23 00:03 | 40.68967 | -74.17317 | 22 ft | 17 kts | 24° |
| 2026-04-23 00:03 | 40.69030 | -74.17299 | 24 ft | 1 kts | 310° |
| 2026-04-23 00:04 | 40.69036 | -74.17328 | 24 ft | 5 kts | 286° |
| 2026-04-23 00:04 | 40.69044 | -74.17351 | 22 ft | 0 kts | 296° |
| 2026-04-23 00:04 | 40.69045 | -74.17352 | 22 ft | 0 kts | 296° |
| 2026-04-23 00:06 | 40.69052 | -74.17372 | 24 ft | 8 kts | 296° |
| 2026-04-23 00:06 | 40.69072 | -74.17428 | 24 ft | 9 kts | 296° |
| 2026-04-23 00:07 | 40.69095 | -74.17480 | 24 ft | 12 kts | 307° |
| 2026-04-23 00:07 | 40.69130 | -74.17501 | 24 ft | 12 kts | 27° |
| 2026-04-23 00:07 | 40.69148 | -74.17481 | 24 ft | 139 kts | 45° |